createdAt,value
2023-05-22T00:00:38.480Z,20.700
2023-05-22T00:01:38.157Z,20.700
2023-05-22T00:02:38.203Z,19.700
2023-05-22T00:03:38.283Z,22.300
2023-05-22T00:04:37.893Z,20.300
2023-05-22T00:05:39.191Z,21.300
2023-05-22T00:06:37.864Z,22.600
2023-05-22T00:07:38.320Z,21.900
2023-05-22T00:08:37.996Z,22.100
2023-05-22T00:09:38.430Z,21.800
2023-05-22T00:10:38.291Z,20.500
2023-05-22T00:11:37.836Z,21.400
2023-05-22T00:12:38.467Z,23.100
2023-05-22T00:13:37.977Z,21.300
2023-05-22T00:14:38.436Z,23.500
2023-05-22T00:15:37.866Z,22.800
2023-05-22T00:16:38.773Z,23.200
2023-05-22T00:17:38.649Z,23.100
2023-05-22T00:19:38.220Z,23.900
2023-05-22T00:20:37.823Z,22.900
2023-05-22T00:21:38.724Z,22.100
2023-05-22T00:22:38.427Z,22.000
2023-05-22T00:23:38.019Z,21.800
2023-05-22T00:24:38.472Z,23.800
2023-05-22T00:25:37.880Z,22.700
2023-05-22T00:26:38.269Z,22.400
2023-05-22T00:27:37.766Z,22.300
2023-05-22T00:28:38.232Z,21.300
2023-05-22T00:29:37.701Z,22.300
2023-05-22T00:30:38.520Z,23.600
2023-05-22T00:31:38.209Z,20.900
2023-05-22T00:32:38.060Z,22.500
2023-05-22T00:33:37.677Z,21.400
2023-05-22T00:34:38.781Z,22.600
2023-05-22T00:35:38.338Z,23.200
2023-05-22T00:36:37.742Z,23.600
2023-05-22T00:37:38.231Z,23.000
2023-05-22T00:38:37.915Z,22.800
2023-05-22T00:39:38.337Z,23.600
2023-05-22T00:40:38.334Z,22.000
2023-05-22T00:42:38.354Z,21.700
2023-05-22T00:43:37.806Z,21.400
2023-05-22T00:44:38.310Z,21.900
2023-05-22T00:45:37.775Z,22.200
2023-05-22T00:46:38.820Z,23.500
2023-05-22T00:47:38.552Z,22.800
2023-05-22T00:49:38.550Z,24.800
2023-05-22T00:50:38.308Z,23.000
2023-05-22T00:51:38.029Z,20.700
2023-05-22T00:52:38.595Z,23.000
2023-05-22T00:53:38.100Z,23.700
2023-05-22T00:54:37.540Z,23.000
2023-05-22T00:55:37.999Z,21.400
2023-05-22T00:56:38.480Z,22.800
2023-05-22T00:57:37.871Z,21.600
2023-05-22T00:58:38.337Z,22.400
2023-05-22T00:59:37.767Z,23.100
2023-05-22T01:00:38.553Z,24.300
2023-05-22T01:01:38.406Z,22.900
2023-05-22T01:02:38.267Z,24.400
2023-05-22T01:03:38.513Z,22.400
2023-05-22T01:04:38.178Z,23.900
2023-05-22T01:06:38.182Z,22.700
2023-05-22T01:07:37.652Z,23.000
2023-05-22T01:08:38.078Z,24.300
2023-05-22T01:09:37.509Z,23.800
2023-05-22T01:11:37.832Z,22.000
2023-05-22T01:12:38.243Z,24.700
2023-05-22T01:13:37.804Z,24.200
2023-05-22T01:14:38.263Z,23.100
2023-05-22T01:15:37.923Z,23.200
2023-05-22T01:16:38.746Z,22.200
2023-05-22T01:17:38.546Z,23.800
2023-05-22T01:19:38.218Z,22.500
2023-05-22T01:20:38.118Z,23.900
2023-05-22T01:21:37.876Z,25.000
2023-05-22T01:22:38.331Z,22.600
2023-05-22T01:23:37.778Z,25.800
2023-05-22T01:24:38.333Z,23.300
2023-05-22T01:25:37.879Z,27.900
2023-05-22T01:26:38.518Z,25.800
2023-05-22T01:27:38.086Z,26.500
2023-05-22T01:28:37.487Z,24.800
2023-05-22T01:29:37.962Z,25.000
2023-05-22T01:30:38.621Z,24.500
2023-05-22T01:31:38.224Z,25.300
2023-05-22T01:32:38.095Z,24.900
2023-05-22T01:33:38.862Z,23.700
2023-05-22T01:34:37.589Z,21.600
2023-05-22T01:35:38.161Z,24.000
2023-05-22T01:36:37.741Z,23.800
2023-05-22T01:37:38.231Z,21.400
2023-05-22T01:38:37.677Z,23.900
2023-05-22T01:39:38.171Z,25.200
2023-05-22T01:40:37.778Z,23.900
2023-05-22T01:41:38.516Z,24.700
2023-05-22T01:42:38.124Z,24.200
2023-05-22T01:43:37.530Z,24.700
2023-05-22T01:44:37.997Z,24.700
2023-05-22T01:45:38.693Z,26.900
2023-05-22T01:46:38.288Z,24.300
2023-05-22T01:47:37.798Z,26.000
2023-05-22T01:48:38.344Z,25.500
2023-05-22T01:49:37.777Z,25.300
2023-05-22T01:50:38.446Z,25.500
2023-05-22T01:51:38.266Z,26.100
2023-05-22T01:52:37.654Z,23.400
2023-05-22T01:53:38.057Z,25.800
2023-05-22T01:54:38.571Z,24.500
2023-05-22T01:55:38.026Z,25.500
2023-05-22T01:56:38.718Z,25.300
2023-05-22T01:57:38.272Z,24.400
2023-05-22T01:58:37.852Z,23.000
2023-05-22T01:59:38.391Z,22.900
2023-05-22T02:00:37.913Z,22.700
2023-05-22T02:01:39.245Z,27.100
2023-05-22T02:02:38.604Z,26.200
2023-05-22T02:03:38.756Z,25.900
2023-05-22T02:04:38.559Z,24.900
2023-05-22T02:05:38.043Z,27.600
2023-05-22T02:06:38.453Z,26.100
2023-05-22T02:07:37.934Z,24.000
2023-05-22T02:08:38.353Z,25.000
2023-05-22T02:09:37.791Z,25.900
2023-05-22T02:10:38.463Z,25.300
2023-05-22T02:11:38.093Z,25.300
2023-05-22T02:12:37.577Z,25.100
2023-05-22T02:13:38.012Z,23.100
2023-05-22T02:14:38.630Z,25.500
2023-05-22T02:15:38.232Z,26.000
2023-05-22T02:16:37.830Z,24.800
2023-05-22T02:17:38.524Z,25.600
2023-05-22T02:18:38.120Z,23.900
2023-05-22T02:19:37.884Z,26.500
2023-05-22T02:20:38.570Z,28.500
2023-05-22T02:21:38.234Z,25.800
2023-05-22T02:22:37.630Z,26.900
2023-05-22T02:23:38.072Z,28.800
2023-05-22T02:26:37.624Z,27.200
2023-05-22T02:27:38.119Z,27.900
2023-05-22T02:28:37.579Z,27.100
2023-05-22T02:29:38.022Z,27.500
2023-05-22T02:30:38.859Z,28.400
2023-05-22T02:31:39.146Z,27.600
2023-05-22T02:32:38.117Z,28.300
2023-05-22T02:33:37.573Z,27.300
2023-05-22T02:34:38.224Z,26.100
2023-05-22T02:35:37.920Z,25.500
2023-05-22T02:36:38.519Z,27.000
2023-05-22T02:37:38.056Z,27.300
2023-05-22T02:38:37.547Z,26.700
2023-05-22T02:39:38.107Z,26.700
2023-05-22T02:40:37.964Z,28.000
2023-05-22T02:41:38.158Z,27.400
2023-05-22T02:42:37.570Z,26.800
2023-05-22T02:43:38.136Z,27.300
2023-05-22T02:44:37.632Z,27.500
2023-05-22T02:45:38.104Z,26.100
2023-05-22T02:46:37.802Z,26.900
2023-05-22T02:47:38.568Z,26.000
2023-05-22T02:48:38.101Z,26.300
2023-05-22T02:49:37.648Z,26.200
2023-05-22T02:50:38.349Z,26.200
2023-05-22T02:53:37.823Z,27.800
2023-05-22T02:54:38.370Z,27.700
2023-05-22T02:55:37.778Z,26.400
2023-05-22T02:56:38.257Z,27.400
2023-05-22T02:57:37.755Z,26.000
2023-05-22T02:58:38.264Z,26.400
2023-05-22T02:59:37.591Z,25.800
2023-05-22T03:00:38.267Z,28.000
2023-05-22T03:01:38.163Z,26.600
2023-05-22T03:02:38.194Z,27.600
2023-05-22T03:03:38.659Z,26.700
2023-05-22T03:05:37.711Z,27.200
2023-05-22T03:06:38.267Z,25.500
2023-05-22T03:07:37.838Z,26.600
2023-05-22T03:08:38.352Z,26.000
2023-05-22T03:09:37.804Z,26.000
2023-05-22T03:10:38.650Z,25.700
2023-05-22T03:11:38.277Z,26.800
2023-05-22T03:12:37.695Z,26.300
2023-05-22T03:13:38.221Z,27.900
2023-05-22T03:14:37.703Z,25.700
2023-05-22T03:15:38.282Z,25.600
2023-05-22T03:16:38.019Z,25.500
2023-05-22T03:17:37.732Z,27.600
2023-05-22T03:18:39.689Z,26.200
2023-05-22T03:19:38.564Z,27.500
2023-05-22T03:20:38.329Z,25.600
2023-05-22T03:21:37.984Z,27.000
2023-05-22T03:22:38.389Z,26.300
2023-05-22T03:23:37.830Z,25.400
2023-05-22T03:24:38.347Z,27.900
2023-05-22T03:25:37.757Z,27.500
2023-05-22T03:26:38.245Z,27.400
2023-05-22T03:27:37.632Z,26.400
2023-05-22T03:28:38.190Z,25.900
2023-05-22T03:29:37.740Z,26.500
2023-05-22T03:30:38.406Z,24.600
2023-05-22T03:31:38.021Z,26.300
2023-05-22T03:32:37.731Z,27.400
2023-05-22T03:33:38.894Z,25.900
2023-05-22T03:34:38.455Z,25.800
2023-05-22T03:35:37.946Z,27.100
2023-05-22T03:36:40.376Z,26.300
2023-05-22T03:37:37.806Z,27.400
2023-05-22T03:38:38.298Z,25.800
2023-05-22T03:39:37.794Z,26.700
2023-05-22T03:40:38.400Z,27.300
2023-05-22T03:41:38.096Z,26.800
2023-05-22T03:42:37.528Z,27.000
2023-05-22T03:43:37.942Z,25.900
2023-05-22T03:44:37.594Z,26.600
2023-05-22T03:45:38.278Z,26.700
2023-05-22T03:46:37.905Z,27.300
2023-05-22T03:47:38.700Z,26.600
2023-05-22T03:48:38.307Z,25.500
2023-05-22T03:49:37.790Z,26.500
2023-05-22T03:50:38.483Z,23.800
2023-05-22T03:51:38.073Z,26.900
2023-05-22T03:52:37.580Z,25.100
2023-05-22T03:54:38.464Z,26.800
2023-05-22T03:55:37.982Z,26.600
2023-05-22T03:56:38.460Z,26.500
2023-05-22T03:57:37.935Z,26.000
2023-05-22T03:58:38.446Z,26.200
2023-05-22T03:59:37.910Z,26.300
2023-05-22T04:00:39.748Z,26.200
2023-05-22T04:01:38.413Z,27.300
2023-05-22T04:02:38.397Z,26.200
2023-05-22T04:03:38.476Z,25.500
2023-05-22T04:04:38.067Z,27.200
2023-05-22T04:05:37.917Z,26.700
2023-05-22T04:06:38.389Z,25.700
2023-05-22T04:09:37.720Z,25.600
2023-05-22T04:10:38.444Z,26.300
2023-05-22T04:11:38.109Z,26.300
2023-05-22T04:12:37.685Z,24.300
2023-05-22T04:13:38.156Z,26.100
2023-05-22T04:14:37.661Z,23.800
2023-05-22T04:15:38.205Z,24.500
2023-05-22T04:16:38.597Z,24.600
2023-05-22T04:17:38.695Z,22.000
2023-05-22T04:18:38.170Z,24.700
2023-05-22T04:19:38.267Z,24.800
2023-05-22T04:20:38.021Z,26.500
2023-05-22T04:21:37.656Z,25.000
2023-05-22T04:22:38.124Z,24.800
2023-05-22T04:23:37.595Z,25.100
2023-05-22T04:24:38.072Z,25.300
2023-05-22T04:25:37.560Z,25.300
2023-05-22T04:26:40.478Z,24.300
2023-05-22T04:27:38.328Z,25.700
2023-05-22T04:28:37.802Z,25.100
2023-05-22T04:29:38.271Z,21.400
2023-05-22T04:30:38.117Z,22.800
2023-05-22T04:31:38.737Z,23.500
2023-05-22T04:33:38.194Z,23.500
2023-05-22T04:34:37.709Z,24.400
2023-05-22T04:35:38.215Z,23.800
2023-05-22T04:36:37.671Z,24.300
2023-05-22T04:37:38.167Z,23.800
2023-05-22T04:38:37.671Z,23.700
2023-05-22T04:39:38.289Z,24.600
2023-05-22T04:40:37.810Z,23.000
2023-05-22T04:41:37.863Z,23.300
2023-05-22T04:42:38.472Z,23.600
2023-05-22T04:43:37.891Z,23.600
2023-05-22T04:44:38.348Z,22.900
2023-05-22T04:45:37.769Z,23.400
2023-05-22T04:46:38.848Z,21.000
2023-05-22T04:48:38.231Z,20.600
2023-05-22T04:49:37.697Z,20.600
2023-05-22T04:50:38.605Z,22.100
2023-05-22T04:51:38.526Z,19.700
2023-05-22T04:52:37.894Z,20.100
2023-05-22T04:53:38.433Z,21.500
2023-05-22T04:54:37.836Z,22.800
2023-05-22T04:55:38.269Z,21.300
2023-05-22T04:56:45.130Z,19.600
2023-05-22T04:58:38.069Z,22.100
2023-05-22T04:59:37.526Z,20.100
2023-05-22T05:00:38.537Z,20.500
2023-05-22T05:01:39.194Z,21.200
2023-05-22T05:02:38.058Z,20.300
2023-05-22T05:04:38.439Z,20.500
2023-05-22T05:05:37.883Z,19.200
2023-05-22T05:06:38.391Z,19.800
2023-05-22T05:07:37.852Z,22.400
2023-05-22T05:08:38.380Z,20.500
2023-05-22T05:09:37.981Z,20.000
2023-05-22T05:10:38.639Z,19.400
2023-05-22T05:11:38.205Z,20.100
2023-05-22T05:12:37.640Z,21.700
2023-05-22T05:13:38.145Z,20.100
2023-05-22T05:14:37.619Z,20.500
2023-05-22T05:15:38.099Z,19.800
2023-05-22T05:16:37.938Z,19.200
2023-05-22T05:17:37.612Z,23.100
2023-05-22T05:18:38.296Z,23.100
2023-05-22T05:19:41.613Z,20.900
2023-05-22T05:21:37.568Z,19.000
2023-05-22T05:22:38.425Z,21.700
2023-05-22T05:23:37.859Z,20.000
2023-05-22T05:24:38.381Z,20.800
2023-05-22T05:25:37.815Z,21.200
2023-05-22T05:26:38.304Z,22.000
2023-05-22T05:27:37.719Z,21.200
2023-05-22T05:28:38.151Z,19.700
2023-05-22T05:29:37.637Z,20.800
2023-05-22T05:30:38.297Z,22.700
2023-05-22T05:31:38.174Z,20.800
2023-05-22T05:32:37.937Z,21.300
2023-05-22T05:33:37.523Z,23.200
2023-05-22T05:34:37.980Z,22.000
2023-05-22T05:35:39.584Z,20.600
2023-05-22T05:36:38.327Z,21.300
2023-05-22T05:37:37.871Z,23.800
2023-05-22T05:38:38.351Z,21.300
2023-05-22T05:39:37.909Z,20.700
2023-05-22T05:40:38.626Z,22.600
2023-05-22T05:41:38.187Z,22.500
2023-05-22T05:42:37.758Z,21.800
2023-05-22T05:43:38.265Z,25.100
2023-05-22T05:44:37.796Z,22.800
2023-05-22T05:45:38.307Z,24.300
2023-05-22T05:46:38.270Z,23.800
2023-05-22T05:47:38.292Z,23.700
2023-05-22T05:48:37.952Z,22.000
2023-05-22T05:49:41.174Z,22.700
2023-05-22T05:52:38.045Z,21.300
2023-05-22T05:53:38.738Z,22.300
2023-05-22T05:54:38.381Z,20.600
2023-05-22T05:55:39.931Z,18.600
2023-05-22T05:56:38.424Z,19.900
2023-05-22T05:59:38.229Z,18.800
2023-05-22T06:00:37.915Z,18.100
2023-05-22T06:01:37.776Z,17.400
2023-05-22T06:02:38.693Z,17.900
2023-05-22T06:03:39.132Z,19.100
2023-05-22T06:04:37.841Z,18.100
2023-05-22T06:05:38.605Z,17.400
2023-05-22T06:06:38.129Z,16.900
2023-05-22T06:07:37.543Z,18.500
2023-05-22T06:08:38.043Z,17.800
2023-05-22T06:09:38.670Z,18.000
2023-05-22T06:10:38.314Z,17.000
2023-05-22T06:11:37.918Z,18.000
2023-05-22T06:12:38.441Z,19.400
2023-05-22T06:13:37.894Z,16.600
2023-05-22T06:14:38.361Z,17.200
2023-05-22T06:15:37.850Z,17.200
2023-05-22T06:16:38.636Z,17.400
2023-05-22T06:17:38.505Z,17.500
2023-05-22T06:18:38.016Z,16.700
2023-05-22T06:19:38.931Z,15.800
2023-05-22T06:20:38.647Z,17.300
2023-05-22T06:21:38.163Z,16.000
2023-05-22T06:22:37.669Z,16.500
2023-05-22T06:23:38.444Z,17.000
2023-05-22T06:24:37.956Z,17.200
2023-05-22T06:25:38.379Z,16.600
2023-05-22T06:26:37.811Z,15.800
2023-05-22T06:27:38.309Z,15.500
2023-05-22T06:28:37.715Z,16.800
2023-05-22T06:29:38.183Z,16.600
2023-05-22T06:30:43.401Z,17.600
2023-05-22T06:32:39.424Z,14.600
2023-05-22T06:34:38.048Z,14.700
2023-05-22T06:36:38.263Z,14.100
2023-05-22T06:37:37.734Z,13.300
2023-05-22T06:38:38.327Z,14.300
2023-05-22T06:39:37.781Z,13.600
2023-05-22T06:40:38.444Z,13.300
2023-05-22T06:41:38.039Z,14.000
2023-05-22T06:42:38.327Z,14.000
2023-05-22T06:43:37.779Z,14.400
2023-05-22T06:44:38.336Z,13.100
2023-05-22T06:45:37.887Z,14.000
2023-05-22T06:46:38.959Z,12.900
2023-05-22T06:47:38.609Z,13.800
2023-05-22T06:48:38.145Z,14.400
2023-05-22T06:49:37.765Z,14.500
2023-05-22T06:50:38.335Z,13.900
2023-05-22T06:51:37.863Z,14.300
2023-05-22T06:52:38.319Z,14.700
2023-05-22T06:53:37.843Z,14.600
2023-05-22T06:54:38.438Z,14.400
2023-05-22T06:55:37.909Z,13.700
2023-05-22T06:56:38.522Z,14.500
2023-05-22T06:57:38.004Z,14.400
2023-05-22T06:58:38.490Z,14.000
2023-05-22T06:59:37.986Z,14.500
2023-05-22T07:00:38.899Z,14.000
2023-05-22T07:01:37.939Z,15.100
2023-05-22T07:02:37.697Z,13.900
2023-05-22T07:03:38.211Z,14.000
2023-05-22T07:04:37.687Z,13.900
2023-05-22T07:05:38.590Z,14.700
2023-05-22T07:06:38.231Z,14.100
2023-05-22T07:07:37.682Z,13.600
2023-05-22T07:08:41.545Z,13.700
2023-05-22T07:09:38.046Z,13.600
2023-05-22T07:10:37.813Z,14.100
2023-05-22T07:11:37.635Z,14.000
2023-05-22T07:12:38.081Z,14.300
2023-05-22T07:13:37.802Z,13.600
2023-05-22T07:14:38.263Z,13.600
2023-05-22T07:15:37.969Z,14.600
2023-05-22T07:16:38.841Z,13.000
2023-05-22T07:17:38.604Z,14.600
2023-05-22T07:18:38.112Z,13.900
2023-05-22T07:19:38.134Z,13.000
2023-05-22T07:20:37.819Z,13.700
2023-05-22T07:21:37.993Z,13.400
2023-05-22T07:22:38.466Z,12.600
2023-05-22T07:23:38.312Z,15.000
2023-05-22T07:24:37.911Z,13.800
2023-05-22T07:25:37.488Z,13.700
2023-05-22T07:26:37.964Z,13.700
2023-05-22T07:27:38.467Z,14.500
2023-05-22T07:28:37.993Z,12.800
2023-05-22T07:29:38.504Z,13.400
2023-05-22T07:30:38.303Z,13.700
2023-05-22T07:31:38.298Z,15.600
2023-05-22T07:32:38.063Z,13.700
2023-05-22T07:33:37.635Z,13.600
2023-05-22T07:34:40.008Z,13.800
2023-05-22T07:35:38.478Z,14.500
2023-05-22T07:36:37.975Z,13.200
2023-05-22T07:37:38.506Z,13.500
2023-05-22T07:38:37.985Z,13.400
2023-05-22T07:39:38.484Z,13.000
2023-05-22T07:40:38.412Z,12.600
2023-05-22T07:41:38.228Z,12.700
2023-05-22T07:42:37.724Z,13.200
2023-05-22T07:43:38.467Z,13.100
2023-05-22T07:44:38.031Z,13.500
2023-05-22T07:45:37.738Z,13.600
2023-05-22T07:46:38.946Z,13.400
2023-05-22T07:47:38.092Z,12.900
2023-05-22T07:48:37.662Z,13.100
2023-05-22T07:49:38.203Z,14.000
2023-05-22T07:50:37.895Z,12.800
2023-05-22T07:51:38.481Z,12.800
2023-05-22T07:52:37.995Z,13.700
2023-05-22T07:53:37.635Z,13.400
2023-05-22T07:54:38.277Z,13.700
2023-05-22T07:55:37.984Z,13.400
2023-05-22T07:56:37.712Z,13.600
2023-05-22T07:57:38.312Z,13.400
2023-05-22T07:58:37.858Z,13.600
2023-05-22T07:59:38.526Z,13.300
2023-05-22T08:00:38.162Z,12.800
2023-05-22T08:02:38.653Z,13.700
2023-05-22T08:03:39.102Z,12.800
2023-05-22T08:04:39.074Z,13.700
2023-05-22T08:05:37.933Z,12.900
2023-05-22T08:06:38.830Z,12.300
2023-05-22T08:07:38.600Z,12.500
2023-05-22T08:08:38.080Z,12.900
2023-05-22T08:09:37.573Z,14.100
2023-05-22T08:11:04.112Z,14.700
2023-05-22T08:12:38.243Z,12.000
2023-05-22T08:13:37.841Z,13.400
2023-05-22T08:14:38.830Z,13.600
2023-05-22T08:15:38.313Z,12.300
2023-05-22T08:16:38.302Z,12.400
2023-05-22T08:17:38.560Z,13.200
2023-05-22T08:18:38.542Z,12.400
2023-05-22T08:19:38.692Z,13.300
2023-05-22T08:20:39.310Z,13.000
2023-05-22T08:21:37.993Z,13.000
2023-05-22T08:22:38.526Z,13.700
2023-05-22T08:23:38.074Z,12.500
2023-05-22T08:24:37.604Z,12.700
2023-05-22T08:25:38.274Z,13.600
2023-05-22T08:26:40.130Z,12.900
2023-05-22T08:27:37.593Z,12.900
2023-05-22T08:28:38.313Z,13.200
2023-05-22T08:29:37.818Z,13.500
2023-05-22T08:30:38.491Z,13.300
2023-05-22T08:31:38.627Z,12.800
2023-05-22T08:32:40.779Z,12.900
2023-05-22T08:33:38.480Z,11.900
2023-05-22T08:34:37.938Z,12.500
2023-05-22T08:35:37.689Z,12.900
2023-05-22T08:36:38.274Z,12.700
2023-05-22T08:39:37.698Z,12.500
2023-05-22T08:40:38.337Z,13.300
2023-05-22T08:41:38.281Z,12.500
2023-05-22T08:42:37.678Z,12.800
2023-05-22T08:43:38.279Z,12.500
2023-05-22T08:44:37.890Z,12.500
2023-05-22T08:45:38.372Z,12.800
2023-05-22T08:46:38.217Z,11.300
2023-05-22T08:47:38.259Z,12.500
2023-05-22T08:48:37.817Z,12.900
2023-05-22T08:49:38.477Z,12.800
2023-05-22T08:50:38.236Z,13.000
2023-05-22T08:51:38.284Z,13.100
2023-05-22T08:52:37.766Z,12.600
2023-05-22T08:53:38.593Z,12.900
2023-05-22T08:54:38.215Z,12.900
2023-05-22T08:55:37.658Z,11.900
2023-05-22T08:56:56.873Z,11.700
2023-05-22T08:59:37.901Z,12.900
2023-05-22T09:00:38.794Z,12.300
2023-05-22T09:01:38.318Z,12.500
2023-05-22T09:02:38.206Z,11.800
2023-05-22T09:03:38.703Z,11.200
2023-05-22T09:04:38.670Z,11.300
2023-05-22T09:05:38.193Z,11.900
2023-05-22T09:06:37.823Z,11.900
2023-05-22T09:07:38.473Z,11.000
2023-05-22T09:08:37.977Z,10.500
2023-05-22T09:09:38.461Z,11.600
2023-05-22T09:10:38.437Z,11.800
2023-05-22T09:11:38.216Z,11.000
2023-05-22T09:12:37.770Z,12.100
2023-05-22T09:13:38.369Z,11.300
2023-05-22T09:14:38.158Z,11.000
2023-05-22T09:15:37.701Z,10.600
2023-05-22T09:16:38.319Z,12.000
2023-05-22T09:17:38.364Z,12.200
2023-05-22T09:18:38.243Z,11.800
2023-05-22T09:19:38.558Z,11.800
2023-05-22T09:21:38.848Z,12.100
2023-05-22T09:22:37.990Z,12.900
2023-05-22T09:23:38.491Z,12.500
2023-05-22T09:24:38.114Z,13.400
2023-05-22T09:25:37.768Z,12.700
2023-05-22T09:26:38.537Z,12.700
2023-05-22T09:27:38.115Z,12.100
2023-05-22T09:28:37.624Z,12.100
2023-05-22T09:29:38.153Z,11.500
2023-05-22T09:30:37.872Z,12.100
2023-05-22T09:31:38.765Z,13.500
2023-05-22T09:32:37.893Z,12.500
2023-05-22T09:34:38.127Z,12.700
2023-05-22T09:35:37.594Z,12.200
2023-05-22T09:36:38.064Z,12.200
2023-05-22T09:37:37.517Z,11.600
2023-05-22T09:38:38.124Z,11.900
2023-05-22T09:39:37.715Z,12.200
2023-05-22T09:40:38.544Z,12.900
2023-05-22T09:41:38.262Z,12.600
2023-05-22T09:42:38.011Z,12.400
2023-05-22T09:43:38.507Z,12.800
2023-05-22T09:44:38.408Z,12.200
2023-05-22T09:45:37.898Z,12.000
2023-05-22T09:46:38.588Z,12.700
2023-05-22T09:47:38.881Z,12.900
2023-05-22T09:48:38.458Z,13.100
2023-05-22T09:49:38.012Z,13.100
2023-05-22T09:50:38.710Z,12.500
2023-05-22T09:51:38.415Z,12.400
2023-05-22T09:52:37.941Z,12.800
2023-05-22T09:53:38.484Z,12.200
2023-05-22T09:54:38.112Z,12.300
2023-05-22T09:55:37.663Z,12.600
2023-05-22T09:56:48.103Z,12.100
2023-05-22T09:57:37.718Z,12.100
2023-05-22T09:58:38.211Z,12.300
2023-05-22T09:59:37.740Z,12.100
2023-05-22T10:00:38.253Z,11.800
2023-05-22T10:01:38.401Z,12.100
2023-05-22T10:02:38.489Z,11.700
2023-05-22T10:03:38.243Z,11.900
2023-05-22T10:04:38.105Z,12.100
2023-05-22T10:07:38.284Z,13.000
2023-05-22T10:08:37.915Z,12.800
2023-05-22T10:09:39.260Z,13.000
2023-05-22T10:10:37.929Z,13.400
2023-05-22T10:11:38.195Z,18.300
2023-05-22T10:12:37.926Z,12.500
2023-05-22T10:14:39.698Z,12.500
2023-05-22T10:15:38.078Z,12.400
2023-05-22T10:16:37.819Z,12.100
2023-05-22T10:17:38.291Z,12.200
2023-05-22T10:18:37.719Z,12.400
2023-05-22T10:19:43.936Z,12.600
2023-05-22T10:20:38.494Z,12.300
2023-05-22T10:21:38.132Z,12.200
2023-05-22T10:24:38.169Z,12.800
2023-05-22T10:25:37.703Z,12.500
2023-05-22T10:26:38.384Z,11.800
2023-05-22T10:27:38.033Z,12.500
2023-05-22T10:29:38.216Z,12.000
2023-05-22T10:30:37.899Z,12.000
2023-05-22T10:31:40.522Z,10.900
2023-05-22T10:32:38.657Z,11.500
2023-05-22T10:33:38.452Z,11.600
2023-05-22T10:34:38.490Z,11.900
2023-05-22T10:35:37.972Z,11.600
2023-05-22T10:36:38.963Z,11.800
2023-05-22T10:37:38.447Z,12.100
2023-05-22T10:38:38.548Z,11.700
2023-05-22T10:40:39.195Z,11.600
2023-05-22T10:41:37.833Z,11.500
2023-05-22T10:42:38.475Z,11.300
2023-05-22T10:43:37.996Z,11.800
2023-05-22T10:44:38.720Z,11.600
2023-05-22T10:45:38.616Z,11.200
2023-05-22T10:46:37.926Z,11.100
2023-05-22T10:47:39.131Z,11.100
2023-05-22T10:48:37.687Z,11.500
2023-05-22T10:49:38.211Z,11.300
2023-05-22T10:50:38.180Z,11.800
2023-05-22T10:51:38.318Z,11.200
2023-05-22T10:52:37.747Z,11.200
2023-05-22T10:53:38.351Z,11.400
2023-05-22T10:54:37.919Z,10.400
2023-05-22T10:55:38.437Z,10.600
2023-05-22T10:57:37.805Z,11.200
2023-05-22T10:58:38.863Z,11.000
2023-05-22T10:59:38.362Z,10.100
2023-05-22T11:00:38.104Z,11.000
2023-05-22T11:01:38.955Z,10.800
2023-05-22T11:02:38.138Z,10.800
2023-05-22T11:03:38.626Z,11.200
2023-05-22T11:04:38.775Z,10.200
2023-05-22T11:05:38.630Z,10.100
2023-05-22T11:06:38.236Z,11.200
2023-05-22T11:07:37.738Z,10.600
2023-05-22T11:08:38.298Z,10.300
2023-05-22T11:09:37.917Z,9.400
2023-05-22T11:10:38.917Z,10.600
2023-05-22T11:11:37.555Z,10.300
2023-05-22T11:12:38.143Z,9.900
2023-05-22T11:13:40.749Z,11.000
2023-05-22T11:14:38.724Z,10.300
2023-05-22T11:15:38.223Z,10.300
2023-05-22T11:16:38.257Z,9.600
2023-05-22T11:17:38.370Z,10.200
2023-05-22T11:19:38.025Z,10.100
2023-05-22T11:21:38.041Z,10.100
2023-05-22T11:23:38.095Z,9.300
2023-05-22T11:24:37.800Z,9.400
2023-05-22T11:25:38.290Z,9.600
2023-05-22T11:26:40.109Z,8.900
2023-05-22T11:27:37.613Z,10.200
2023-05-22T11:28:38.286Z,9.400
2023-05-22T11:29:37.808Z,10.400
2023-05-22T11:30:38.749Z,9.700
2023-05-22T11:31:37.873Z,9.500
2023-05-22T11:33:38.431Z,8.900
2023-05-22T11:34:37.965Z,10.600
2023-05-22T11:35:37.845Z,10.400
2023-05-22T11:36:38.570Z,9.900
2023-05-22T11:37:38.025Z,10.500
2023-05-22T11:38:37.521Z,10.100
2023-05-22T11:39:38.138Z,10.500
2023-05-22T11:40:38.055Z,10.200
2023-05-22T11:41:41.296Z,10.400
2023-05-22T11:42:37.828Z,9.900
2023-05-22T11:43:38.533Z,10.400
2023-05-22T11:44:38.066Z,9.600
2023-05-22T11:45:37.503Z,10.000
2023-05-22T11:46:38.364Z,9.300
2023-05-22T11:47:38.369Z,9.800
2023-05-22T11:48:37.923Z,8.900
2023-05-22T11:49:38.424Z,8.800
2023-05-22T11:50:48.190Z,8.100
2023-05-22T11:51:37.910Z,9.000
2023-05-22T11:52:38.575Z,9.600
2023-05-22T11:53:38.406Z,8.700
2023-05-22T11:54:41.384Z,8.600
2023-05-22T11:56:37.624Z,8.700
2023-05-22T11:57:38.259Z,9.100
2023-05-22T11:58:37.910Z,8.600
2023-05-22T11:59:38.507Z,9.200
2023-05-22T12:00:38.827Z,9.700
2023-05-22T12:01:37.942Z,9.000
2023-05-22T12:02:39.321Z,9.200
2023-05-22T12:03:39.405Z,9.700
2023-05-22T12:04:38.161Z,9.000
2023-05-22T12:05:37.745Z,9.100
2023-05-22T12:06:38.749Z,9.100
2023-05-22T12:07:37.535Z,9.000
2023-05-22T12:08:38.076Z,8.900
2023-05-22T12:09:37.472Z,9.400
2023-05-22T12:10:38.239Z,9.500
2023-05-22T12:11:37.823Z,8.400
2023-05-22T12:12:37.584Z,9.400
2023-05-22T12:13:38.103Z,8.700
2023-05-22T12:14:37.704Z,9.000
2023-05-22T12:15:38.610Z,8.800
2023-05-22T12:16:38.468Z,8.800
2023-05-22T12:17:38.158Z,9.100
2023-05-22T12:18:38.002Z,8.900
2023-05-22T12:19:38.520Z,9.300
2023-05-22T12:20:38.258Z,8.300
2023-05-22T12:21:37.866Z,8.000
2023-05-22T12:22:38.366Z,8.500
2023-05-22T12:24:38.548Z,8.700
2023-05-22T12:25:38.074Z,8.600
2023-05-22T12:26:37.595Z,9.100
2023-05-22T12:27:41.307Z,8.800
2023-05-22T12:28:37.841Z,8.400
2023-05-22T12:29:38.370Z,7.500
2023-05-22T12:30:38.382Z,7.800
2023-05-22T12:31:38.728Z,7.800
2023-05-22T12:32:38.213Z,7.600
2023-05-22T12:33:37.765Z,8.000
2023-05-22T12:34:38.365Z,8.300
2023-05-22T12:35:37.887Z,8.300
2023-05-22T12:36:38.381Z,9.000
2023-05-22T12:37:39.029Z,8.400
2023-05-22T12:38:40.701Z,9.000
2023-05-22T12:39:38.188Z,8.500
2023-05-22T12:41:38.344Z,8.200
2023-05-22T12:42:37.820Z,8.500
2023-05-22T12:43:38.578Z,8.500
2023-05-22T12:44:38.058Z,9.200
2023-05-22T12:45:37.586Z,8.400
2023-05-22T12:46:38.385Z,8.400
2023-05-22T12:47:38.360Z,8.400
2023-05-22T12:48:39.090Z,8.300
2023-05-22T12:49:37.519Z,7.600
2023-05-22T12:50:38.080Z,8.000
2023-05-22T12:51:38.304Z,8.300
2023-05-22T12:52:37.774Z,8.800
2023-05-22T12:53:38.346Z,9.000
2023-05-22T12:54:37.824Z,9.000
2023-05-22T12:55:38.283Z,9.300
2023-05-22T12:56:37.908Z,9.900
2023-05-22T12:57:38.426Z,9.600
2023-05-22T12:58:37.965Z,9.400
2023-05-22T12:59:37.490Z,9.400
2023-05-22T13:00:38.221Z,9.700
2023-05-22T13:01:38.765Z,9.400
2023-05-22T13:02:38.461Z,8.900
2023-05-22T13:04:38.085Z,8.400
2023-05-22T13:05:38.328Z,9.100
2023-05-22T13:06:41.620Z,9.100
2023-05-22T13:07:38.105Z,8.400
2023-05-22T13:08:37.582Z,8.200
2023-05-22T13:09:38.098Z,8.300
2023-05-22T13:11:38.265Z,8.400
2023-05-22T13:12:37.810Z,8.000
2023-05-22T13:13:38.336Z,7.900
2023-05-22T13:14:37.833Z,8.500
2023-05-22T13:15:38.615Z,8.300
2023-05-22T13:16:38.367Z,8.400
2023-05-22T13:17:38.418Z,8.500
2023-05-22T13:18:38.008Z,8.100
2023-05-22T13:19:37.985Z,9.000
2023-05-22T13:20:37.566Z,8.100
2023-05-22T13:21:38.598Z,7.900
2023-05-22T13:22:38.111Z,8.900